sensor_id;sensor_type;location;lat;lon;timestamp;P1;durP1;ratioP1;P2;durP2;ratioP2
73219;SDS011;61434;43.538;-5.688;2023-01-08T00:01:25;11.37;;;1.83;;
73219;SDS011;61434;43.538;-5.688;2023-01-08T00:03:51;8.77;;;1.90;;
73219;SDS011;61434;43.538;-5.688;2023-01-08T00:06:17;9.88;;;1.70;;
73219;SDS011;61434;43.538;-5.688;2023-01-08T00:08:45;10.43;;;1.90;;
73219;SDS011;61434;43.538;-5.688;2023-01-08T00:11:11;12.10;;;1.97;;
73219;SDS011;61434;43.538;-5.688;2023-01-08T00:13:37;10.80;;;1.50;;
73219;SDS011;61434;43.538;-5.688;2023-01-08T00:16:03;7.90;;;1.50;;
73219;SDS011;61434;43.538;-5.688;2023-01-08T00:18:29;9.40;;;1.52;;
73219;SDS011;61434;43.538;-5.688;2023-01-08T00:20:55;9.73;;;1.70;;
73219;SDS011;61434;43.538;-5.688;2023-01-08T00:23:20;7.35;;;1.42;;
73219;SDS011;61434;43.538;-5.688;2023-01-08T00:25:46;8.53;;;1.40;;
73219;SDS011;61434;43.538;-5.688;2023-01-08T00:28:12;8.38;;;1.42;;
73219;SDS011;61434;43.538;-5.688;2023-01-08T00:30:39;12.38;;;2.00;;
73219;SDS011;61434;43.538;-5.688;2023-01-08T00:33:05;13.53;;;1.77;;
73219;SDS011;61434;43.538;-5.688;2023-01-08T00:35:30;9.65;;;2.10;;
73219;SDS011;61434;43.538;-5.688;2023-01-08T00:37:56;14.37;;;2.40;;
73219;SDS011;61434;43.538;-5.688;2023-01-08T00:40:21;12.43;;;3.27;;
73219;SDS011;61434;43.538;-5.688;2023-01-08T00:42:47;13.57;;;3.78;;
73219;SDS011;61434;43.538;-5.688;2023-01-08T00:45:12;15.53;;;2.93;;
73219;SDS011;61434;43.538;-5.688;2023-01-08T00:47:38;12.00;;;2.60;;
73219;SDS011;61434;43.538;-5.688;2023-01-08T00:50:03;10.87;;;2.47;;
73219;SDS011;61434;43.538;-5.688;2023-01-08T00:52:29;13.82;;;2.90;;
73219;SDS011;61434;43.538;-5.688;2023-01-08T00:54:54;10.30;;;2.73;;
73219;SDS011;61434;43.538;-5.688;2023-01-08T00:57:20;13.40;;;2.93;;
73219;SDS011;61434;43.538;-5.688;2023-01-08T00:59:45;12.75;;;3.13;;
73219;SDS011;61434;43.538;-5.688;2023-01-08T01:02:11;14.90;;;3.57;;
73219;SDS011;61434;43.538;-5.688;2023-01-08T01:04:36;15.03;;;3.50;;
73219;SDS011;61434;43.538;-5.688;2023-01-08T01:07:02;17.03;;;3.73;;
73219;SDS011;61434;43.538;-5.688;2023-01-08T01:09:28;12.38;;;3.58;;
73219;SDS011;61434;43.538;-5.688;2023-01-08T01:11:53;13.63;;;3.60;;
73219;SDS011;61434;43.538;-5.688;2023-01-08T01:14:19;16.60;;;3.88;;
73219;SDS011;61434;43.538;-5.688;2023-01-08T01:16:44;13.83;;;4.00;;
73219;SDS011;61434;43.538;-5.688;2023-01-08T01:19:12;12.10;;;3.92;;
73219;SDS011;61434;43.538;-5.688;2023-01-08T01:21:39;18.08;;;3.75;;
73219;SDS011;61434;43.538;-5.688;2023-01-08T01:24:05;12.33;;;3.70;;
73219;SDS011;61434;43.538;-5.688;2023-01-08T01:26:31;12.82;;;3.88;;
73219;SDS011;61434;43.538;-5.688;2023-01-08T01:28:57;16.70;;;3.87;;
73219;SDS011;61434;43.538;-5.688;2023-01-08T01:31:24;13.15;;;3.60;;
73219;SDS011;61434;43.538;-5.688;2023-01-08T01:33:51;14.45;;;3.88;;
73219;SDS011;61434;43.538;-5.688;2023-01-08T01:36:17;17.20;;;3.40;;
73219;SDS011;61434;43.538;-5.688;2023-01-08T01:38:50;14.80;;;3.53;;
73219;SDS011;61434;43.538;-5.688;2023-01-08T01:41:27;14.57;;;3.42;;
73219;SDS011;61434;43.538;-5.688;2023-01-08T01:43:56;16.00;;;3.60;;
73219;SDS011;61434;43.538;-5.688;2023-01-08T01:49:04;12.80;;;2.92;;
73219;SDS011;61434;43.538;-5.688;2023-01-08T01:51:34;11.07;;;3.13;;
73219;SDS011;61434;43.538;-5.688;2023-01-08T01:54:02;11.75;;;2.83;;
73219;SDS011;61434;43.538;-5.688;2023-01-08T01:56:30;11.43;;;2.65;;
73219;SDS011;61434;43.538;-5.688;2023-01-08T01:58:56;11.07;;;2.95;;
73219;SDS011;61434;43.538;-5.688;2023-01-08T02:01:22;9.53;;;2.50;;
73219;SDS011;61434;43.538;-5.688;2023-01-08T02:03:48;10.95;;;2.75;;
73219;SDS011;61434;43.538;-5.688;2023-01-08T02:06:15;8.57;;;1.93;;
73219;SDS011;61434;43.538;-5.688;2023-01-08T02:11:28;10.02;;;2.30;;
73219;SDS011;61434;43.538;-5.688;2023-01-08T02:14:04;7.13;;;1.80;;
73219;SDS011;61434;43.538;-5.688;2023-01-08T02:16:44;11.07;;;1.67;;
73219;SDS011;61434;43.538;-5.688;2023-01-08T02:19:23;10.40;;;1.80;;
73219;SDS011;61434;43.538;-5.688;2023-01-08T02:24:55;10.93;;;1.80;;
73219;SDS011;61434;43.538;-5.688;2023-01-08T02:27:42;9.15;;;1.55;;
73219;SDS011;61434;43.538;-5.688;2023-01-08T02:30:11;8.73;;;1.73;;
73219;SDS011;61434;43.538;-5.688;2023-01-08T02:32:37;10.23;;;1.60;;
73219;SDS011;61434;43.538;-5.688;2023-01-08T02:35:04;7.68;;;1.35;;
73219;SDS011;61434;43.538;-5.688;2023-01-08T02:37:31;9.70;;;1.50;;
73219;SDS011;61434;43.538;-5.688;2023-01-08T02:50:31;6.50;;;1.30;;
73219;SDS011;61434;43.538;-5.688;2023-01-08T02:53:09;6.10;;;1.50;;
73219;SDS011;61434;43.538;-5.688;2023-01-08T02:55:42;5.85;;;1.30;;
73219;SDS011;61434;43.538;-5.688;2023-01-08T02:58:13;6.80;;;1.40;;
73219;SDS011;61434;43.538;-5.688;2023-01-08T03:00:40;6.43;;;1.75;;
73219;SDS011;61434;43.538;-5.688;2023-01-08T03:03:09;10.67;;;1.60;;
73219;SDS011;61434;43.538;-5.688;2023-01-08T03:05:42;10.52;;;1.70;;
73219;SDS011;61434;43.538;-5.688;2023-01-08T03:08:12;7.75;;;1.60;;
73219;SDS011;61434;43.538;-5.688;2023-01-08T03:10:38;7.32;;;1.73;;
73219;SDS011;61434;43.538;-5.688;2023-01-08T03:13:14;7.43;;;2.20;;
73219;SDS011;61434;43.538;-5.688;2023-01-08T03:15:46;10.27;;;2.00;;
73219;SDS011;61434;43.538;-5.688;2023-01-08T03:18:19;9.85;;;2.30;;
73219;SDS011;61434;43.538;-5.688;2023-01-08T03:20:58;9.90;;;2.22;;
73219;SDS011;61434;43.538;-5.688;2023-01-08T03:23:26;7.97;;;2.20;;
73219;SDS011;61434;43.538;-5.688;2023-01-08T03:25:53;6.93;;;2.10;;
73219;SDS011;61434;43.538;-5.688;2023-01-08T03:28:20;8.67;;;2.00;;
73219;SDS011;61434;43.538;-5.688;2023-01-08T03:30:49;7.93;;;2.05;;
73219;SDS011;61434;43.538;-5.688;2023-01-08T03:33:17;6.50;;;2.13;;
73219;SDS011;61434;43.538;-5.688;2023-01-08T03:35:45;8.40;;;2.17;;
73219;SDS011;61434;43.538;-5.688;2023-01-08T03:38:16;8.18;;;2.20;;
73219;SDS011;61434;43.538;-5.688;2023-01-08T03:40:50;11.95;;;2.53;;
73219;SDS011;61434;43.538;-5.688;2023-01-08T03:43:20;9.73;;;2.20;;
73219;SDS011;61434;43.538;-5.688;2023-01-08T03:45:48;8.27;;;2.20;;
73219;SDS011;61434;43.538;-5.688;2023-01-08T03:48:17;7.85;;;2.05;;
73219;SDS011;61434;43.538;-5.688;2023-01-08T03:50:45;10.35;;;2.40;;
73219;SDS011;61434;43.538;-5.688;2023-01-08T03:53:10;9.57;;;2.30;;
73219;SDS011;61434;43.538;-5.688;2023-01-08T03:55:36;9.10;;;2.70;;
73219;SDS011;61434;43.538;-5.688;2023-01-08T03:58:01;9.95;;;2.50;;
73219;SDS011;61434;43.538;-5.688;2023-01-08T04:00:27;7.83;;;2.10;;
73219;SDS011;61434;43.538;-5.688;2023-01-08T04:02:52;8.73;;;2.60;;
73219;SDS011;61434;43.538;-5.688;2023-01-08T04:05:18;8.75;;;2.47;;
73219;SDS011;61434;43.538;-5.688;2023-01-08T04:07:44;7.63;;;2.20;;
73219;SDS011;61434;43.538;-5.688;2023-01-08T04:10:09;7.37;;;2.20;;
73219;SDS011;61434;43.538;-5.688;2023-01-08T04:12:35;7.47;;;2.37;;
73219;SDS011;61434;43.538;-5.688;2023-01-08T04:15:00;6.67;;;2.10;;
73219;SDS011;61434;43.538;-5.688;2023-01-08T04:17:25;6.43;;;1.70;;
73219;SDS011;61434;43.538;-5.688;2023-01-08T04:19:51;5.55;;;1.70;;
73219;SDS011;61434;43.538;-5.688;2023-01-08T04:22:16;7.50;;;1.80;;
73219;SDS011;61434;43.538;-5.688;2023-01-08T04:24:42;8.97;;;2.10;;
73219;SDS011;61434;43.538;-5.688;2023-01-08T04:27:07;6.17;;;1.70;;
73219;SDS011;61434;43.538;-5.688;2023-01-08T04:29:33;7.35;;;1.83;;
73219;SDS011;61434;43.538;-5.688;2023-01-08T04:31:58;8.23;;;1.70;;
73219;SDS011;61434;43.538;-5.688;2023-01-08T04:34:24;7.82;;;1.80;;
73219;SDS011;61434;43.538;-5.688;2023-01-08T04:36:50;7.93;;;1.90;;
73219;SDS011;61434;43.538;-5.688;2023-01-08T04:39:15;8.00;;;1.87;;
73219;SDS011;61434;43.538;-5.688;2023-01-08T04:41:41;6.60;;;1.63;;
73219;SDS011;61434;43.538;-5.688;2023-01-08T04:44:07;7.87;;;1.60;;
73219;SDS011;61434;43.538;-5.688;2023-01-08T04:46:33;7.72;;;1.60;;
73219;SDS011;61434;43.538;-5.688;2023-01-08T04:48:58;8.70;;;1.60;;
73219;SDS011;61434;43.538;-5.688;2023-01-08T04:51:23;9.67;;;1.60;;
73219;SDS011;61434;43.538;-5.688;2023-01-08T04:53:50;7.75;;;1.83;;
73219;SDS011;61434;43.538;-5.688;2023-01-08T04:56:16;6.63;;;1.63;;
73219;SDS011;61434;43.538;-5.688;2023-01-08T04:58:41;8.10;;;2.33;;
73219;SDS011;61434;43.538;-5.688;2023-01-08T05:01:16;7.83;;;2.10;;
73219;SDS011;61434;43.538;-5.688;2023-01-08T05:03:44;8.20;;;2.08;;
73219;SDS011;61434;43.538;-5.688;2023-01-08T05:06:09;9.13;;;2.53;;
73219;SDS011;61434;43.538;-5.688;2023-01-08T05:08:35;6.55;;;2.05;;
73219;SDS011;61434;43.538;-5.688;2023-01-08T05:11:00;10.20;;;2.50;;
73219;SDS011;61434;43.538;-5.688;2023-01-08T05:13:27;9.23;;;2.40;;
73219;SDS011;61434;43.538;-5.688;2023-01-08T05:15:53;6.13;;;1.80;;
73219;SDS011;61434;43.538;-5.688;2023-01-08T05:18:28;8.02;;;2.00;;
73219;SDS011;61434;43.538;-5.688;2023-01-08T05:20:54;7.53;;;2.17;;
73219;SDS011;61434;43.538;-5.688;2023-01-08T05:23:23;8.57;;;2.40;;
73219;SDS011;61434;43.538;-5.688;2023-01-08T05:25:49;7.87;;;2.40;;
73219;SDS011;61434;43.538;-5.688;2023-01-08T05:28:14;8.80;;;2.60;;
73219;SDS011;61434;43.538;-5.688;2023-01-08T05:30:40;10.67;;;2.80;;
73219;SDS011;61434;43.538;-5.688;2023-01-08T05:33:05;10.52;;;4.20;;
73219;SDS011;61434;43.538;-5.688;2023-01-08T05:35:31;12.63;;;4.90;;
73219;SDS011;61434;43.538;-5.688;2023-01-08T05:37:58;10.50;;;3.90;;
73219;SDS011;61434;43.538;-5.688;2023-01-08T05:40:24;9.40;;;3.60;;
73219;SDS011;61434;43.538;-5.688;2023-01-08T05:42:50;12.70;;;4.00;;
73219;SDS011;61434;43.538;-5.688;2023-01-08T05:45:15;11.47;;;3.60;;
73219;SDS011;61434;43.538;-5.688;2023-01-08T05:47:41;10.90;;;3.40;;
73219;SDS011;61434;43.538;-5.688;2023-01-08T05:50:06;11.70;;;3.83;;
73219;SDS011;61434;43.538;-5.688;2023-01-08T05:52:32;9.27;;;3.35;;
73219;SDS011;61434;43.538;-5.688;2023-01-08T05:54:58;10.47;;;2.90;;
73219;SDS011;61434;43.538;-5.688;2023-01-08T05:57:24;8.73;;;2.00;;
73219;SDS011;61434;43.538;-5.688;2023-01-08T05:59:50;8.35;;;2.30;;
73219;SDS011;61434;43.538;-5.688;2023-01-08T06:02:16;7.37;;;2.10;;
73219;SDS011;61434;43.538;-5.688;2023-01-08T06:04:41;7.93;;;2.20;;
73219;SDS011;61434;43.538;-5.688;2023-01-08T06:07:07;9.50;;;2.30;;
73219;SDS011;61434;43.538;-5.688;2023-01-08T06:09:33;8.45;;;2.17;;
73219;SDS011;61434;43.538;-5.688;2023-01-08T06:11:58;10.20;;;2.93;;
73219;SDS011;61434;43.538;-5.688;2023-01-08T06:14:24;9.20;;;3.30;;
73219;SDS011;61434;43.538;-5.688;2023-01-08T06:16:50;9.53;;;3.00;;
73219;SDS011;61434;43.538;-5.688;2023-01-08T06:19:15;9.00;;;2.78;;
73219;SDS011;61434;43.538;-5.688;2023-01-08T06:21:43;11.63;;;3.28;;
73219;SDS011;61434;43.538;-5.688;2023-01-08T06:24:08;10.53;;;3.10;;
73219;SDS011;61434;43.538;-5.688;2023-01-08T06:26:34;10.07;;;3.00;;
73219;SDS011;61434;43.538;-5.688;2023-01-08T06:28:59;9.73;;;3.10;;
73219;SDS011;61434;43.538;-5.688;2023-01-08T06:31:25;10.67;;;3.03;;
73219;SDS011;61434;43.538;-5.688;2023-01-08T06:33:50;8.73;;;3.43;;
73219;SDS011;61434;43.538;-5.688;2023-01-08T06:36:16;8.85;;;3.20;;
73219;SDS011;61434;43.538;-5.688;2023-01-08T06:38:41;9.17;;;2.90;;
73219;SDS011;61434;43.538;-5.688;2023-01-08T06:41:07;9.00;;;3.00;;
73219;SDS011;61434;43.538;-5.688;2023-01-08T06:43:35;8.13;;;2.42;;
73219;SDS011;61434;43.538;-5.688;2023-01-08T06:46:01;10.02;;;2.83;;
73219;SDS011;61434;43.538;-5.688;2023-01-08T06:48:27;10.03;;;3.00;;
73219;SDS011;61434;43.538;-5.688;2023-01-08T06:50:53;10.70;;;3.65;;
73219;SDS011;61434;43.538;-5.688;2023-01-08T06:53:18;9.13;;;3.23;;
73219;SDS011;61434;43.538;-5.688;2023-01-08T06:55:44;12.30;;;3.95;;
73219;SDS011;61434;43.538;-5.688;2023-01-08T06:58:10;9.50;;;3.50;;
73219;SDS011;61434;43.538;-5.688;2023-01-08T07:00:38;9.35;;;3.25;;
73219;SDS011;61434;43.538;-5.688;2023-01-08T07:03:04;10.30;;;4.07;;
73219;SDS011;61434;43.538;-5.688;2023-01-08T07:05:29;12.90;;;3.83;;
73219;SDS011;61434;43.538;-5.688;2023-01-08T07:07:55;12.98;;;4.38;;
73219;SDS011;61434;43.538;-5.688;2023-01-08T07:10:21;12.30;;;5.20;;
73219;SDS011;61434;43.538;-5.688;2023-01-08T07:12:47;11.07;;;4.60;;
73219;SDS011;61434;43.538;-5.688;2023-01-08T07:15:12;15.07;;;4.90;;
73219;SDS011;61434;43.538;-5.688;2023-01-08T07:17:38;12.60;;;4.32;;
73219;SDS011;61434;43.538;-5.688;2023-01-08T07:20:04;15.50;;;4.70;;
73219;SDS011;61434;43.538;-5.688;2023-01-08T07:22:30;10.57;;;4.20;;
73219;SDS011;61434;43.538;-5.688;2023-01-08T07:24:56;11.75;;;4.18;;
73219;SDS011;61434;43.538;-5.688;2023-01-08T07:27:21;13.30;;;4.10;;
73219;SDS011;61434;43.538;-5.688;2023-01-08T07:29:47;14.23;;;4.23;;
73219;SDS011;61434;43.538;-5.688;2023-01-08T07:32:12;8.85;;;3.35;;
73219;SDS011;61434;43.538;-5.688;2023-01-08T07:34:38;11.07;;;3.10;;
73219;SDS011;61434;43.538;-5.688;2023-01-08T07:37:03;10.83;;;3.07;;
73219;SDS011;61434;43.538;-5.688;2023-01-08T07:39:28;10.57;;;2.80;;
73219;SDS011;61434;43.538;-5.688;2023-01-08T07:41:54;9.75;;;2.20;;
73219;SDS011;61434;43.538;-5.688;2023-01-08T07:44:20;7.47;;;2.10;;
73219;SDS011;61434;43.538;-5.688;2023-01-08T07:46:45;8.00;;;2.30;;
73219;SDS011;61434;43.538;-5.688;2023-01-08T07:49:11;8.10;;;2.15;;
73219;SDS011;61434;43.538;-5.688;2023-01-08T07:51:36;7.10;;;2.53;;
73219;SDS011;61434;43.538;-5.688;2023-01-08T07:54:02;11.03;;;2.40;;
73219;SDS011;61434;43.538;-5.688;2023-01-08T07:56:27;10.07;;;2.70;;
73219;SDS011;61434;43.538;-5.688;2023-01-08T07:58:53;8.97;;;2.57;;
73219;SDS011;61434;43.538;-5.688;2023-01-08T08:01:18;8.17;;;2.10;;
73219;SDS011;61434;43.538;-5.688;2023-01-08T08:03:44;8.32;;;2.10;;
73219;SDS011;61434;43.538;-5.688;2023-01-08T08:06:09;6.33;;;1.90;;
73219;SDS011;61434;43.538;-5.688;2023-01-08T08:08:35;10.13;;;1.90;;
73219;SDS011;61434;43.538;-5.688;2023-01-08T08:11:01;8.05;;;1.92;;
73219;SDS011;61434;43.538;-5.688;2023-01-08T08:13:26;5.90;;;1.60;;
73219;SDS011;61434;43.538;-5.688;2023-01-08T08:15:52;6.30;;;1.90;;
73219;SDS011;61434;43.538;-5.688;2023-01-08T08:18:17;8.33;;;2.20;;
73219;SDS011;61434;43.538;-5.688;2023-01-08T08:20:42;9.23;;;2.80;;
73219;SDS011;61434;43.538;-5.688;2023-01-08T08:23:09;8.80;;;3.17;;
73219;SDS011;61434;43.538;-5.688;2023-01-08T08:25:37;8.48;;;2.80;;
73219;SDS011;61434;43.538;-5.688;2023-01-08T08:28:04;8.98;;;2.58;;
73219;SDS011;61434;43.538;-5.688;2023-01-08T08:30:30;7.00;;;2.40;;
73219;SDS011;61434;43.538;-5.688;2023-01-08T08:32:59;8.40;;;2.20;;
73219;SDS011;61434;43.538;-5.688;2023-01-08T08:35:25;7.95;;;2.50;;
73219;SDS011;61434;43.538;-5.688;2023-01-08T08:37:52;8.17;;;2.17;;
73219;SDS011;61434;43.538;-5.688;2023-01-08T08:40:17;8.27;;;3.00;;
73219;SDS011;61434;43.538;-5.688;2023-01-08T08:42:43;8.23;;;3.00;;
73219;SDS011;61434;43.538;-5.688;2023-01-08T08:45:08;7.75;;;2.45;;
73219;SDS011;61434;43.538;-5.688;2023-01-08T08:47:34;9.43;;;2.50;;
73219;SDS011;61434;43.538;-5.688;2023-01-08T08:50:00;7.80;;;2.97;;
73219;SDS011;61434;43.538;-5.688;2023-01-08T08:52:26;9.55;;;2.92;;
73219;SDS011;61434;43.538;-5.688;2023-01-08T08:54:52;8.55;;;2.88;;
73219;SDS011;61434;43.538;-5.688;2023-01-08T08:57:17;7.17;;;2.60;;
73219;SDS011;61434;43.538;-5.688;2023-01-08T08:59:43;8.40;;;2.50;;
73219;SDS011;61434;43.538;-5.688;2023-01-08T09:02:09;8.90;;;2.80;;
73219;SDS011;61434;43.538;-5.688;2023-01-08T09:04:36;7.47;;;2.83;;
73219;SDS011;61434;43.538;-5.688;2023-01-08T09:07:01;8.13;;;2.87;;
73219;SDS011;61434;43.538;-5.688;2023-01-08T09:09:27;10.77;;;3.10;;
73219;SDS011;61434;43.538;-5.688;2023-01-08T09:11:53;12.18;;;3.22;;
73219;SDS011;61434;43.538;-5.688;2023-01-08T09:14:19;8.70;;;3.07;;
73219;SDS011;61434;43.538;-5.688;2023-01-08T09:16:44;7.82;;;3.17;;
73219;SDS011;61434;43.538;-5.688;2023-01-08T09:19:10;6.90;;;2.50;;
73219;SDS011;61434;43.538;-5.688;2023-01-08T09:21:36;5.82;;;2.47;;
73219;SDS011;61434;43.538;-5.688;2023-01-08T09:24:01;6.83;;;2.20;;
73219;SDS011;61434;43.538;-5.688;2023-01-08T09:26:27;7.78;;;2.60;;
73219;SDS011;61434;43.538;-5.688;2023-01-08T09:28:54;6.47;;;2.50;;
73219;SDS011;61434;43.538;-5.688;2023-01-08T09:31:20;7.77;;;2.27;;
73219;SDS011;61434;43.538;-5.688;2023-01-08T09:33:46;7.05;;;2.58;;
73219;SDS011;61434;43.538;-5.688;2023-01-08T09:36:12;7.35;;;2.38;;
73219;SDS011;61434;43.538;-5.688;2023-01-08T09:38:38;6.87;;;2.20;;
73219;SDS011;61434;43.538;-5.688;2023-01-08T09:41:04;6.27;;;2.30;;
73219;SDS011;61434;43.538;-5.688;2023-01-08T09:43:35;10.07;;;2.40;;
73219;SDS011;61434;43.538;-5.688;2023-01-08T09:46:03;7.00;;;2.65;;
73219;SDS011;61434;43.538;-5.688;2023-01-08T09:48:35;9.73;;;3.17;;
73219;SDS011;61434;43.538;-5.688;2023-01-08T09:51:02;6.85;;;3.03;;
73219;SDS011;61434;43.538;-5.688;2023-01-08T09:53:28;11.98;;;4.45;;
73219;SDS011;61434;43.538;-5.688;2023-01-08T09:56:01;9.75;;;4.80;;
73219;SDS011;61434;43.538;-5.688;2023-01-08T09:58:34;9.65;;;3.97;;
73219;SDS011;61434;43.538;-5.688;2023-01-08T10:01:03;8.80;;;3.60;;
73219;SDS011;61434;43.538;-5.688;2023-01-08T10:03:40;9.98;;;3.40;;
73219;SDS011;61434;43.538;-5.688;2023-01-08T10:06:10;9.13;;;3.08;;
73219;SDS011;61434;43.538;-5.688;2023-01-08T10:08:36;9.45;;;3.15;;
73219;SDS011;61434;43.538;-5.688;2023-01-08T10:11:02;7.20;;;2.60;;
73219;SDS011;61434;43.538;-5.688;2023-01-08T10:13:30;5.70;;;2.40;;
73219;SDS011;61434;43.538;-5.688;2023-01-08T10:15:57;5.78;;;2.17;;
73219;SDS011;61434;43.538;-5.688;2023-01-08T10:18:24;8.27;;;2.40;;
73219;SDS011;61434;43.538;-5.688;2023-01-08T10:20:52;6.77;;;2.40;;
73219;SDS011;61434;43.538;-5.688;2023-01-08T10:23:18;8.70;;;2.30;;
73219;SDS011;61434;43.538;-5.688;2023-01-08T10:25:57;5.03;;;1.77;;
73219;SDS011;61434;43.538;-5.688;2023-01-08T10:28:25;5.70;;;2.10;;
73219;SDS011;61434;43.538;-5.688;2023-01-08T10:31:13;7.72;;;2.20;;
73219;SDS011;61434;43.538;-5.688;2023-01-08T10:33:44;6.43;;;2.30;;
73219;SDS011;61434;43.538;-5.688;2023-01-08T10:36:18;7.05;;;2.13;;
73219;SDS011;61434;43.538;-5.688;2023-01-08T10:38:55;7.28;;;2.60;;
73219;SDS011;61434;43.538;-5.688;2023-01-08T10:41:23;8.07;;;1.83;;
73219;SDS011;61434;43.538;-5.688;2023-01-08T10:43:52;8.73;;;2.00;;
73219;SDS011;61434;43.538;-5.688;2023-01-08T10:48:55;6.25;;;1.90;;
73219;SDS011;61434;43.538;-5.688;2023-01-08T10:51:23;7.15;;;1.85;;
73219;SDS011;61434;43.538;-5.688;2023-01-08T10:53:54;6.10;;;1.97;;
73219;SDS011;61434;43.538;-5.688;2023-01-08T10:58:47;7.10;;;2.33;;
73219;SDS011;61434;43.538;-5.688;2023-01-08T11:01:18;6.85;;;2.40;;
73219;SDS011;61434;43.538;-5.688;2023-01-08T11:03:48;5.72;;;2.20;;
73219;SDS011;61434;43.538;-5.688;2023-01-08T11:06:19;7.20;;;2.10;;
73219;SDS011;61434;43.538;-5.688;2023-01-08T11:08:52;5.93;;;2.20;;
73219;SDS011;61434;43.538;-5.688;2023-01-08T11:11:23;6.83;;;2.47;;
73219;SDS011;61434;43.538;-5.688;2023-01-08T11:13:59;6.78;;;2.80;;
73219;SDS011;61434;43.538;-5.688;2023-01-08T11:16:30;7.82;;;3.03;;
73219;SDS011;61434;43.538;-5.688;2023-01-08T11:18:58;6.95;;;2.80;;
73219;SDS011;61434;43.538;-5.688;2023-01-08T11:21:25;8.20;;;2.40;;
73219;SDS011;61434;43.538;-5.688;2023-01-08T11:24:02;7.35;;;2.33;;
73219;SDS011;61434;43.538;-5.688;2023-01-08T11:32:35;8.55;;;2.70;;
73219;SDS011;61434;43.538;-5.688;2023-01-08T11:35:24;7.53;;;2.90;;
73219;SDS011;61434;43.538;-5.688;2023-01-08T11:37:59;10.10;;;4.30;;
73219;SDS011;61434;43.538;-5.688;2023-01-08T12:05:40;8.57;;;3.25;;
73219;SDS011;61434;43.538;-5.688;2023-01-08T12:10:56;11.23;;;3.63;;
73219;SDS011;61434;43.538;-5.688;2023-01-08T12:18:46;9.20;;;2.95;;
73219;SDS011;61434;43.538;-5.688;2023-01-08T12:21:30;7.53;;;2.30;;
73219;SDS011;61434;43.538;-5.688;2023-01-08T12:29:56;7.80;;;1.77;;
73219;SDS011;61434;43.538;-5.688;2023-01-08T12:32:45;5.53;;;1.58;;
73219;SDS011;61434;43.538;-5.688;2023-01-08T12:35:19;5.35;;;1.60;;
73219;SDS011;61434;43.538;-5.688;2023-01-08T12:38:08;5.60;;;1.35;;
73219;SDS011;61434;43.538;-5.688;2023-01-08T12:40:39;4.60;;;1.27;;
73219;SDS011;61434;43.538;-5.688;2023-01-08T12:43:12;4.93;;;1.27;;
73219;SDS011;61434;43.538;-5.688;2023-01-08T12:45:45;5.00;;;1.20;;
73219;SDS011;61434;43.538;-5.688;2023-01-08T12:48:16;4.75;;;1.20;;
73219;SDS011;61434;43.538;-5.688;2023-01-08T13:01:29;7.18;;;1.67;;
73219;SDS011;61434;43.538;-5.688;2023-01-08T13:03:56;8.80;;;1.92;;
73219;SDS011;61434;43.538;-5.688;2023-01-08T13:06:23;8.00;;;2.03;;
73219;SDS011;61434;43.538;-5.688;2023-01-08T13:08:49;9.57;;;2.10;;
73219;SDS011;61434;43.538;-5.688;2023-01-08T13:11:28;10.18;;;2.55;;
73219;SDS011;61434;43.538;-5.688;2023-01-08T13:16:24;13.40;;;3.00;;
73219;SDS011;61434;43.538;-5.688;2023-01-08T13:18:54;13.80;;;3.83;;
73219;SDS011;61434;43.538;-5.688;2023-01-08T13:21:31;12.00;;;3.45;;
73219;SDS011;61434;43.538;-5.688;2023-01-08T13:24:30;15.55;;;3.40;;
73219;SDS011;61434;43.538;-5.688;2023-01-08T13:26:56;11.67;;;3.67;;
73219;SDS011;61434;43.538;-5.688;2023-01-08T13:37:45;18.73;;;5.18;;
73219;SDS011;61434;43.538;-5.688;2023-01-08T13:45:40;28.23;;;9.65;;
73219;SDS011;61434;43.538;-5.688;2023-01-08T13:48:28;26.15;;;7.25;;
73219;SDS011;61434;43.538;-5.688;2023-01-08T13:50:52;22.35;;;7.13;;
73219;SDS011;61434;43.538;-5.688;2023-01-08T13:53:18;23.83;;;7.30;;
73219;SDS011;61434;43.538;-5.688;2023-01-08T13:55:53;18.83;;;7.43;;
73219;SDS011;61434;43.538;-5.688;2023-01-08T13:58:28;14.15;;;5.57;;
73219;SDS011;61434;43.538;-5.688;2023-01-08T14:00:58;12.35;;;5.00;;
73219;SDS011;61434;43.538;-5.688;2023-01-08T14:03:26;7.43;;;3.13;;
73219;SDS011;61434;43.538;-5.688;2023-01-08T14:05:52;5.18;;;1.88;;
73219;SDS011;61434;43.538;-5.688;2023-01-08T14:08:36;6.18;;;1.75;;
73219;SDS011;61434;43.538;-5.688;2023-01-08T14:11:13;6.07;;;1.50;;
73219;SDS011;61434;43.538;-5.688;2023-01-08T14:13:41;5.17;;;1.83;;
73219;SDS011;61434;43.538;-5.688;2023-01-08T14:16:09;5.40;;;1.67;;
73219;SDS011;61434;43.538;-5.688;2023-01-08T14:18:41;6.05;;;2.08;;
73219;SDS011;61434;43.538;-5.688;2023-01-08T14:21:08;6.22;;;2.05;;
73219;SDS011;61434;43.538;-5.688;2023-01-08T14:23:35;5.37;;;2.07;;
73219;SDS011;61434;43.538;-5.688;2023-01-08T14:26:05;4.55;;;1.90;;
73219;SDS011;61434;43.538;-5.688;2023-01-08T14:28:35;4.97;;;1.90;;
73219;SDS011;61434;43.538;-5.688;2023-01-08T14:31:00;5.30;;;1.87;;
73219;SDS011;61434;43.538;-5.688;2023-01-08T14:33:31;5.35;;;2.03;;
73219;SDS011;61434;43.538;-5.688;2023-01-08T14:35:58;5.43;;;1.50;;
73219;SDS011;61434;43.538;-5.688;2023-01-08T14:38:25;5.67;;;1.70;;
73219;SDS011;61434;43.538;-5.688;2023-01-08T14:41:05;4.60;;;1.90;;
73219;SDS011;61434;43.538;-5.688;2023-01-08T14:43:37;6.70;;;2.05;;
73219;SDS011;61434;43.538;-5.688;2023-01-08T14:46:10;5.60;;;2.38;;
73219;SDS011;61434;43.538;-5.688;2023-01-08T14:48:50;6.37;;;2.23;;
73219;SDS011;61434;43.538;-5.688;2023-01-08T14:51:22;5.75;;;2.13;;
73219;SDS011;61434;43.538;-5.688;2023-01-08T14:53:51;6.00;;;2.10;;
73219;SDS011;61434;43.538;-5.688;2023-01-08T14:56:28;5.60;;;2.10;;
73219;SDS011;61434;43.538;-5.688;2023-01-08T14:58:56;6.38;;;1.60;;
73219;SDS011;61434;43.538;-5.688;2023-01-08T15:01:24;4.80;;;1.50;;
73219;SDS011;61434;43.538;-5.688;2023-01-08T15:04:03;4.72;;;1.70;;
73219;SDS011;61434;43.538;-5.688;2023-01-08T15:06:30;4.85;;;2.00;;
73219;SDS011;61434;43.538;-5.688;2023-01-08T15:08:57;5.75;;;2.25;;
73219;SDS011;61434;43.538;-5.688;2023-01-08T15:11:24;5.72;;;2.40;;
73219;SDS011;61434;43.538;-5.688;2023-01-08T15:13:54;5.97;;;2.50;;
73219;SDS011;61434;43.538;-5.688;2023-01-08T15:16:28;6.45;;;2.40;;
73219;SDS011;61434;43.538;-5.688;2023-01-08T15:19:00;6.72;;;2.20;;
73219;SDS011;61434;43.538;-5.688;2023-01-08T15:21:29;5.20;;;2.30;;
73219;SDS011;61434;43.538;-5.688;2023-01-08T15:23:55;8.40;;;3.40;;
73219;SDS011;61434;43.538;-5.688;2023-01-08T15:26:24;11.43;;;4.80;;
73219;SDS011;61434;43.538;-5.688;2023-01-08T15:28:54;18.38;;;8.82;;
73219;SDS011;61434;43.538;-5.688;2023-01-08T15:31:22;14.90;;;6.97;;
73219;SDS011;61434;43.538;-5.688;2023-01-08T15:33:49;12.25;;;5.22;;
73219;SDS011;61434;43.538;-5.688;2023-01-08T15:36:14;9.20;;;5.00;;
73219;SDS011;61434;43.538;-5.688;2023-01-08T15:38:40;8.33;;;4.33;;
73219;SDS011;61434;43.538;-5.688;2023-01-08T15:41:07;10.33;;;4.10;;
73219;SDS011;61434;43.538;-5.688;2023-01-08T15:43:34;6.63;;;3.10;;
73219;SDS011;61434;43.538;-5.688;2023-01-08T15:45:59;5.47;;;2.03;;
73219;SDS011;61434;43.538;-5.688;2023-01-08T15:48:25;6.00;;;2.00;;
73219;SDS011;61434;43.538;-5.688;2023-01-08T15:50:50;5.53;;;1.70;;
73219;SDS011;61434;43.538;-5.688;2023-01-08T15:53:18;4.53;;;1.20;;
73219;SDS011;61434;43.538;-5.688;2023-01-08T15:55:46;6.07;;;1.10;;
73219;SDS011;61434;43.538;-5.688;2023-01-08T15:58:12;3.73;;;0.97;;
73219;SDS011;61434;43.538;-5.688;2023-01-08T16:00:39;5.15;;;1.23;;
73219;SDS011;61434;43.538;-5.688;2023-01-08T16:03:06;3.92;;;1.00;;
73219;SDS011;61434;43.538;-5.688;2023-01-08T16:05:32;4.07;;;1.13;;
73219;SDS011;61434;43.538;-5.688;2023-01-08T16:07:58;4.20;;;1.40;;
73219;SDS011;61434;43.538;-5.688;2023-01-08T16:10:24;5.20;;;1.40;;
73219;SDS011;61434;43.538;-5.688;2023-01-08T16:12:50;5.53;;;1.23;;